Trego, Wisconsin
Current Conditions -  °F | °C
As of 1:29 PM on Thursday 23 Oct 2014 (Local Time) from KHYR Reporting Station
Overcast Overcast  
Wind Chill: 50°   Ceiling: 500
Heat Index: 50°   Visibility: 9mi
Dew Point: 48°   Wind: 9mph
Humidity: 93%   Direction: 210°SSW
Pressure: 29.99"   Gusts: NA
Location:  45.9°N, 91.82°W
Report Text: KHYR 231829Z AUTO 21008KT 9SM OVC005 10/09 A2999 RMK AO2 T01000089
Loading
Personal Weather Stations






























Interactive Weather Map
Tropical Storm Tracking
New forecast layout! Learn more

10-Day Weather Forecast

Advertisements
Track Severe Weather on mobile